sensor_id;sensor_type;location;lat;lon;timestamp;P1;durP1;ratioP1;P2;durP2;ratioP2
7128;SDS011;3606;52.930;8.644;2023-12-20T00:01:47;7.93;;;2.40;;
7128;SDS011;3606;52.930;8.644;2023-12-20T00:04:12;10.00;;;2.33;;
7128;SDS011;3606;52.930;8.644;2023-12-20T00:06:38;12.73;;;2.60;;
7128;SDS011;3606;52.930;8.644;2023-12-20T00:09:04;13.27;;;3.33;;
7128;SDS011;3606;52.930;8.644;2023-12-20T00:11:29;11.97;;;2.83;;
7128;SDS011;3606;52.930;8.644;2023-12-20T00:13:55;11.20;;;2.63;;
7128;SDS011;3606;52.930;8.644;2023-12-20T00:16:21;12.40;;;2.73;;
7128;SDS011;3606;52.930;8.644;2023-12-20T00:18:46;9.77;;;2.47;;
7128;SDS011;3606;52.930;8.644;2023-12-20T00:21:12;13.50;;;3.10;;
7128;SDS011;3606;52.930;8.644;2023-12-20T00:23:37;18.23;;;3.20;;
7128;SDS011;3606;52.930;8.644;2023-12-20T00:26:03;12.97;;;2.57;;
7128;SDS011;3606;52.930;8.644;2023-12-20T00:28:28;9.73;;;3.10;;
7128;SDS011;3606;52.930;8.644;2023-12-20T00:30:54;8.97;;;2.70;;
7128;SDS011;3606;52.930;8.644;2023-12-20T00:33:20;8.67;;;2.80;;
7128;SDS011;3606;52.930;8.644;2023-12-20T00:35:45;11.60;;;2.67;;
7128;SDS011;3606;52.930;8.644;2023-12-20T00:38:11;12.20;;;2.83;;
7128;SDS011;3606;52.930;8.644;2023-12-20T00:40:37;13.80;;;2.60;;
7128;SDS011;3606;52.930;8.644;2023-12-20T00:43:02;17.10;;;2.60;;
7128;SDS011;3606;52.930;8.644;2023-12-20T00:45:28;12.57;;;2.50;;
7128;SDS011;3606;52.930;8.644;2023-12-20T00:47:54;10.23;;;2.30;;
7128;SDS011;3606;52.930;8.644;2023-12-20T00:50:19;10.87;;;2.83;;
7128;SDS011;3606;52.930;8.644;2023-12-20T00:52:46;11.50;;;2.83;;
7128;SDS011;3606;52.930;8.644;2023-12-20T00:55:12;12.20;;;2.97;;
7128;SDS011;3606;52.930;8.644;2023-12-20T00:57:38;10.33;;;2.63;;
7128;SDS011;3606;52.930;8.644;2023-12-20T01:00:04;7.87;;;2.83;;
7128;SDS011;3606;52.930;8.644;2023-12-20T01:02:30;19.47;;;3.30;;
7128;SDS011;3606;52.930;8.644;2023-12-20T01:04:56;7.93;;;2.77;;
7128;SDS011;3606;52.930;8.644;2023-12-20T01:07:22;14.53;;;2.80;;
7128;SDS011;3606;52.930;8.644;2023-12-20T01:09:47;8.43;;;2.60;;
7128;SDS011;3606;52.930;8.644;2023-12-20T01:12:13;6.63;;;2.50;;
7128;SDS011;3606;52.930;8.644;2023-12-20T01:14:39;12.77;;;3.10;;
7128;SDS011;3606;52.930;8.644;2023-12-20T01:17:04;12.67;;;3.00;;
7128;SDS011;3606;52.930;8.644;2023-12-20T01:19:30;15.40;;;3.00;;
7128;SDS011;3606;52.930;8.644;2023-12-20T01:21:56;12.70;;;2.90;;
7128;SDS011;3606;52.930;8.644;2023-12-20T01:24:21;14.30;;;2.93;;
7128;SDS011;3606;52.930;8.644;2023-12-20T01:26:47;13.07;;;3.13;;
7128;SDS011;3606;52.930;8.644;2023-12-20T01:29:12;9.80;;;2.77;;
7128;SDS011;3606;52.930;8.644;2023-12-20T01:31:39;9.90;;;3.10;;
7128;SDS011;3606;52.930;8.644;2023-12-20T01:34:05;14.20;;;3.13;;
7128;SDS011;3606;52.930;8.644;2023-12-20T01:36:31;11.30;;;2.53;;
7128;SDS011;3606;52.930;8.644;2023-12-20T01:38:57;10.87;;;2.57;;
7128;SDS011;3606;52.930;8.644;2023-12-20T01:41:22;11.40;;;2.73;;
7128;SDS011;3606;52.930;8.644;2023-12-20T01:43:48;9.60;;;2.70;;
7128;SDS011;3606;52.930;8.644;2023-12-20T01:46:14;17.13;;;3.37;;
7128;SDS011;3606;52.930;8.644;2023-12-20T01:48:40;10.50;;;2.63;;
7128;SDS011;3606;52.930;8.644;2023-12-20T01:51:06;9.50;;;3.13;;
7128;SDS011;3606;52.930;8.644;2023-12-20T01:53:32;7.60;;;2.80;;
7128;SDS011;3606;52.930;8.644;2023-12-20T01:55:59;11.30;;;2.73;;
7128;SDS011;3606;52.930;8.644;2023-12-20T01:58:25;13.07;;;3.10;;
7128;SDS011;3606;52.930;8.644;2023-12-20T02:00:51;12.70;;;2.50;;
7128;SDS011;3606;52.930;8.644;2023-12-20T02:03:17;19.40;;;3.17;;
7128;SDS011;3606;52.930;8.644;2023-12-20T02:05:43;9.07;;;2.50;;
7128;SDS011;3606;52.930;8.644;2023-12-20T02:08:09;9.83;;;2.70;;
7128;SDS011;3606;52.930;8.644;2023-12-20T02:10:35;12.27;;;2.80;;
7128;SDS011;3606;52.930;8.644;2023-12-20T02:13:00;9.93;;;2.90;;
7128;SDS011;3606;52.930;8.644;2023-12-20T02:15:26;14.07;;;3.20;;
7128;SDS011;3606;52.930;8.644;2023-12-20T02:17:52;13.23;;;3.03;;
7128;SDS011;3606;52.930;8.644;2023-12-20T02:20:18;9.20;;;2.97;;
7128;SDS011;3606;52.930;8.644;2023-12-20T02:22:44;10.87;;;2.80;;
7128;SDS011;3606;52.930;8.644;2023-12-20T02:25:09;17.10;;;2.97;;
7128;SDS011;3606;52.930;8.644;2023-12-20T02:27:35;9.37;;;3.03;;
7128;SDS011;3606;52.930;8.644;2023-12-20T02:30:00;8.47;;;2.90;;
7128;SDS011;3606;52.930;8.644;2023-12-20T02:32:26;18.03;;;3.37;;
7128;SDS011;3606;52.930;8.644;2023-12-20T02:34:54;18.57;;;3.30;;
7128;SDS011;3606;52.930;8.644;2023-12-20T02:37:20;12.30;;;3.00;;
7128;SDS011;3606;52.930;8.644;2023-12-20T02:39:45;19.63;;;3.50;;
7128;SDS011;3606;52.930;8.644;2023-12-20T02:42:11;14.77;;;3.67;;
7128;SDS011;3606;52.930;8.644;2023-12-20T02:44:36;15.20;;;2.93;;
7128;SDS011;3606;52.930;8.644;2023-12-20T02:47:02;16.43;;;3.37;;
7128;SDS011;3606;52.930;8.644;2023-12-20T02:49:28;13.43;;;3.23;;
7128;SDS011;3606;52.930;8.644;2023-12-20T02:51:54;10.43;;;2.87;;
7128;SDS011;3606;52.930;8.644;2023-12-20T02:54:19;11.83;;;3.20;;
7128;SDS011;3606;52.930;8.644;2023-12-20T02:56:45;12.73;;;3.10;;
7128;SDS011;3606;52.930;8.644;2023-12-20T02:59:11;10.40;;;3.40;;
7128;SDS011;3606;52.930;8.644;2023-12-20T03:01:41;12.67;;;2.97;;
7128;SDS011;3606;52.930;8.644;2023-12-20T03:04:08;12.67;;;3.40;;
7128;SDS011;3606;52.930;8.644;2023-12-20T03:06:34;17.00;;;3.23;;
7128;SDS011;3606;52.930;8.644;2023-12-20T03:09:00;15.80;;;3.03;;
7128;SDS011;3606;52.930;8.644;2023-12-20T03:11:28;15.53;;;3.40;;
7128;SDS011;3606;52.930;8.644;2023-12-20T03:13:57;12.77;;;3.30;;
7128;SDS011;3606;52.930;8.644;2023-12-20T03:16:23;6.93;;;3.47;;
7128;SDS011;3606;52.930;8.644;2023-12-20T03:18:49;9.43;;;3.33;;
7128;SDS011;3606;52.930;8.644;2023-12-20T03:21:15;13.70;;;3.60;;
7128;SDS011;3606;52.930;8.644;2023-12-20T03:23:40;12.90;;;3.53;;
7128;SDS011;3606;52.930;8.644;2023-12-20T03:26:06;11.67;;;3.77;;
7128;SDS011;3606;52.930;8.644;2023-12-20T03:28:33;16.43;;;3.70;;
7128;SDS011;3606;52.930;8.644;2023-12-20T03:30:59;12.50;;;3.87;;
7128;SDS011;3606;52.930;8.644;2023-12-20T03:33:24;16.50;;;3.70;;
7128;SDS011;3606;52.930;8.644;2023-12-20T03:35:50;13.07;;;3.83;;
7128;SDS011;3606;52.930;8.644;2023-12-20T03:38:15;15.47;;;3.80;;
7128;SDS011;3606;52.930;8.644;2023-12-20T03:40:41;12.40;;;3.63;;
7128;SDS011;3606;52.930;8.644;2023-12-20T03:43:07;19.63;;;3.77;;
7128;SDS011;3606;52.930;8.644;2023-12-20T03:45:33;10.80;;;3.90;;
7128;SDS011;3606;52.930;8.644;2023-12-20T03:47:58;12.60;;;4.27;;
7128;SDS011;3606;52.930;8.644;2023-12-20T03:50:24;17.33;;;3.80;;
7128;SDS011;3606;52.930;8.644;2023-12-20T03:52:50;13.53;;;4.23;;
7128;SDS011;3606;52.930;8.644;2023-12-20T03:55:16;16.60;;;4.17;;
7128;SDS011;3606;52.930;8.644;2023-12-20T03:57:42;12.57;;;3.80;;
7128;SDS011;3606;52.930;8.644;2023-12-20T04:00:07;16.93;;;3.97;;
7128;SDS011;3606;52.930;8.644;2023-12-20T04:02:40;15.33;;;3.77;;
7128;SDS011;3606;52.930;8.644;2023-12-20T04:05:06;21.50;;;4.90;;
7128;SDS011;3606;52.930;8.644;2023-12-20T04:07:32;8.90;;;3.63;;
7128;SDS011;3606;52.930;8.644;2023-12-20T04:09:59;14.60;;;4.13;;
7128;SDS011;3606;52.930;8.644;2023-12-20T04:12:25;9.90;;;3.90;;
7128;SDS011;3606;52.930;8.644;2023-12-20T04:14:52;17.60;;;4.10;;
7128;SDS011;3606;52.930;8.644;2023-12-20T04:17:17;11.37;;;4.03;;
7128;SDS011;3606;52.930;8.644;2023-12-20T04:19:43;17.87;;;4.73;;
7128;SDS011;3606;52.930;8.644;2023-12-20T04:22:09;13.60;;;3.87;;
7128;SDS011;3606;52.930;8.644;2023-12-20T04:24:35;16.60;;;4.80;;
7128;SDS011;3606;52.930;8.644;2023-12-20T04:27:01;14.03;;;4.47;;
7128;SDS011;3606;52.930;8.644;2023-12-20T04:29:26;13.47;;;4.33;;
7128;SDS011;3606;52.930;8.644;2023-12-20T04:31:52;15.53;;;4.27;;
7128;SDS011;3606;52.930;8.644;2023-12-20T04:34:18;15.43;;;4.03;;
7128;SDS011;3606;52.930;8.644;2023-12-20T04:36:44;12.27;;;3.90;;
7128;SDS011;3606;52.930;8.644;2023-12-20T04:39:11;15.17;;;4.47;;
7128;SDS011;3606;52.930;8.644;2023-12-20T04:41:38;14.67;;;4.00;;
7128;SDS011;3606;52.930;8.644;2023-12-20T04:44:04;14.87;;;4.00;;
7128;SDS011;3606;52.930;8.644;2023-12-20T04:46:29;14.87;;;4.40;;
7128;SDS011;3606;52.930;8.644;2023-12-20T04:48:55;16.63;;;4.43;;
7128;SDS011;3606;52.930;8.644;2023-12-20T04:51:20;11.23;;;3.80;;
7128;SDS011;3606;52.930;8.644;2023-12-20T04:53:46;15.73;;;4.23;;
7128;SDS011;3606;52.930;8.644;2023-12-20T04:56:12;19.83;;;4.53;;
7128;SDS011;3606;52.930;8.644;2023-12-20T04:58:38;10.63;;;4.17;;
7128;SDS011;3606;52.930;8.644;2023-12-20T05:01:03;17.10;;;3.93;;
7128;SDS011;3606;52.930;8.644;2023-12-20T05:03:31;14.07;;;3.63;;
7128;SDS011;3606;52.930;8.644;2023-12-20T05:05:56;16.77;;;4.27;;
7128;SDS011;3606;52.930;8.644;2023-12-20T05:08:22;15.57;;;3.90;;
7128;SDS011;3606;52.930;8.644;2023-12-20T05:10:47;12.73;;;3.67;;
7128;SDS011;3606;52.930;8.644;2023-12-20T05:13:13;17.63;;;4.50;;
7128;SDS011;3606;52.930;8.644;2023-12-20T05:15:39;16.80;;;3.93;;
7128;SDS011;3606;52.930;8.644;2023-12-20T05:18:04;14.67;;;4.37;;
7128;SDS011;3606;52.930;8.644;2023-12-20T05:20:30;13.27;;;4.00;;
7128;SDS011;3606;52.930;8.644;2023-12-20T05:22:56;11.20;;;4.37;;
7128;SDS011;3606;52.930;8.644;2023-12-20T05:25:21;17.33;;;4.77;;
7128;SDS011;3606;52.930;8.644;2023-12-20T05:27:47;17.30;;;4.40;;
7128;SDS011;3606;52.930;8.644;2023-12-20T05:30:13;17.77;;;4.40;;
7128;SDS011;3606;52.930;8.644;2023-12-20T05:32:39;15.00;;;4.10;;
7128;SDS011;3606;52.930;8.644;2023-12-20T05:35:04;18.60;;;4.50;;
7128;SDS011;3606;52.930;8.644;2023-12-20T05:37:30;23.20;;;4.27;;
7128;SDS011;3606;52.930;8.644;2023-12-20T05:39:56;13.97;;;3.60;;
7128;SDS011;3606;52.930;8.644;2023-12-20T05:42:21;15.60;;;3.73;;
7128;SDS011;3606;52.930;8.644;2023-12-20T05:44:47;14.07;;;4.20;;
7128;SDS011;3606;52.930;8.644;2023-12-20T05:47:12;15.77;;;4.37;;
7128;SDS011;3606;52.930;8.644;2023-12-20T05:49:38;15.93;;;4.20;;
7128;SDS011;3606;52.930;8.644;2023-12-20T05:52:03;16.33;;;3.77;;
7128;SDS011;3606;52.930;8.644;2023-12-20T05:54:29;13.13;;;4.17;;
7128;SDS011;3606;52.930;8.644;2023-12-20T05:56:55;13.37;;;4.33;;
7128;SDS011;3606;52.930;8.644;2023-12-20T05:59:21;21.57;;;5.13;;
7128;SDS011;3606;52.930;8.644;2023-12-20T06:01:46;14.47;;;4.43;;
7128;SDS011;3606;52.930;8.644;2023-12-20T06:04:12;15.97;;;4.67;;
7128;SDS011;3606;52.930;8.644;2023-12-20T06:06:43;17.40;;;4.27;;
7128;SDS011;3606;52.930;8.644;2023-12-20T06:09:09;25.77;;;5.10;;
7128;SDS011;3606;52.930;8.644;2023-12-20T06:11:35;25.47;;;5.03;;
7128;SDS011;3606;52.930;8.644;2023-12-20T06:14:01;18.73;;;4.47;;
7128;SDS011;3606;52.930;8.644;2023-12-20T06:16:26;25.97;;;5.27;;
7128;SDS011;3606;52.930;8.644;2023-12-20T06:18:52;19.57;;;4.53;;
7128;SDS011;3606;52.930;8.644;2023-12-20T06:21:18;17.40;;;5.27;;
7128;SDS011;3606;52.930;8.644;2023-12-20T06:23:43;16.43;;;5.10;;
7128;SDS011;3606;52.930;8.644;2023-12-20T06:26:09;18.27;;;4.90;;
7128;SDS011;3606;52.930;8.644;2023-12-20T06:28:35;13.83;;;4.30;;
7128;SDS011;3606;52.930;8.644;2023-12-20T06:31:00;28.20;;;5.53;;
7128;SDS011;3606;52.930;8.644;2023-12-20T06:33:26;12.87;;;4.30;;
7128;SDS011;3606;52.930;8.644;2023-12-20T06:35:52;18.40;;;4.20;;
7128;SDS011;3606;52.930;8.644;2023-12-20T06:38:18;13.67;;;4.30;;
7128;SDS011;3606;52.930;8.644;2023-12-20T06:40:45;17.37;;;4.97;;
7128;SDS011;3606;52.930;8.644;2023-12-20T06:43:11;16.17;;;5.27;;
7128;SDS011;3606;52.930;8.644;2023-12-20T06:45:38;20.37;;;4.57;;
7128;SDS011;3606;52.930;8.644;2023-12-20T06:48:04;20.20;;;4.47;;
7128;SDS011;3606;52.930;8.644;2023-12-20T06:50:30;25.63;;;4.80;;
7128;SDS011;3606;52.930;8.644;2023-12-20T06:52:56;22.90;;;4.90;;
7128;SDS011;3606;52.930;8.644;2023-12-20T06:55:21;18.40;;;4.53;;
7128;SDS011;3606;52.930;8.644;2023-12-20T06:57:47;17.43;;;4.73;;
7128;SDS011;3606;52.930;8.644;2023-12-20T07:00:12;20.40;;;4.13;;
7128;SDS011;3606;52.930;8.644;2023-12-20T07:02:38;19.50;;;5.10;;
7128;SDS011;3606;52.930;8.644;2023-12-20T07:05:04;18.83;;;5.17;;
7128;SDS011;3606;52.930;8.644;2023-12-20T07:07:30;20.80;;;4.93;;
7128;SDS011;3606;52.930;8.644;2023-12-20T07:09:55;24.40;;;5.00;;
7128;SDS011;3606;52.930;8.644;2023-12-20T07:12:21;13.93;;;4.87;;
7128;SDS011;3606;52.930;8.644;2023-12-20T07:14:47;14.83;;;5.33;;
7128;SDS011;3606;52.930;8.644;2023-12-20T07:17:12;17.37;;;4.80;;
7128;SDS011;3606;52.930;8.644;2023-12-20T07:19:40;25.20;;;5.70;;
7128;SDS011;3606;52.930;8.644;2023-12-20T07:22:07;17.30;;;4.70;;
7128;SDS011;3606;52.930;8.644;2023-12-20T07:24:32;15.50;;;4.33;;
7128;SDS011;3606;52.930;8.644;2023-12-20T07:27:01;16.17;;;5.00;;
7128;SDS011;3606;52.930;8.644;2023-12-20T07:29:27;18.63;;;5.17;;
7128;SDS011;3606;52.930;8.644;2023-12-20T07:31:53;17.83;;;4.80;;
7128;SDS011;3606;52.930;8.644;2023-12-20T07:34:19;23.70;;;4.90;;
7128;SDS011;3606;52.930;8.644;2023-12-20T07:36:45;18.33;;;4.80;;
7128;SDS011;3606;52.930;8.644;2023-12-20T07:39:12;18.37;;;4.97;;
7128;SDS011;3606;52.930;8.644;2023-12-20T07:41:38;22.53;;;5.13;;
7128;SDS011;3606;52.930;8.644;2023-12-20T07:44:04;24.17;;;4.93;;
7128;SDS011;3606;52.930;8.644;2023-12-20T07:46:29;22.77;;;4.90;;
7128;SDS011;3606;52.930;8.644;2023-12-20T07:48:55;16.80;;;4.70;;
7128;SDS011;3606;52.930;8.644;2023-12-20T07:51:21;21.47;;;4.77;;
7128;SDS011;3606;52.930;8.644;2023-12-20T07:53:46;21.37;;;5.37;;
7128;SDS011;3606;52.930;8.644;2023-12-20T07:56:15;24.13;;;4.80;;
7128;SDS011;3606;52.930;8.644;2023-12-20T07:58:42;21.57;;;5.20;;
7128;SDS011;3606;52.930;8.644;2023-12-20T08:01:08;16.90;;;4.23;;
7128;SDS011;3606;52.930;8.644;2023-12-20T08:03:33;15.20;;;4.37;;
7128;SDS011;3606;52.930;8.644;2023-12-20T08:05:59;13.33;;;4.33;;
7128;SDS011;3606;52.930;8.644;2023-12-20T08:08:25;20.20;;;4.87;;
7128;SDS011;3606;52.930;8.644;2023-12-20T08:10:51;20.80;;;5.20;;
7128;SDS011;3606;52.930;8.644;2023-12-20T08:13:16;23.23;;;4.87;;
7128;SDS011;3606;52.930;8.644;2023-12-20T08:15:42;19.93;;;4.13;;
7128;SDS011;3606;52.930;8.644;2023-12-20T08:18:07;15.40;;;4.40;;
7128;SDS011;3606;52.930;8.644;2023-12-20T08:20:33;19.57;;;4.80;;
7128;SDS011;3606;52.930;8.644;2023-12-20T08:22:59;15.30;;;4.80;;
7128;SDS011;3606;52.930;8.644;2023-12-20T08:25:24;16.03;;;4.27;;
7128;SDS011;3606;52.930;8.644;2023-12-20T08:27:50;10.77;;;4.30;;
7128;SDS011;3606;52.930;8.644;2023-12-20T08:30:15;15.10;;;4.30;;
7128;SDS011;3606;52.930;8.644;2023-12-20T08:32:45;16.17;;;4.07;;
7128;SDS011;3606;52.930;8.644;2023-12-20T08:35:11;18.03;;;5.30;;
7128;SDS011;3606;52.930;8.644;2023-12-20T08:37:37;17.23;;;4.80;;
7128;SDS011;3606;52.930;8.644;2023-12-20T08:40:02;18.23;;;4.20;;
7128;SDS011;3606;52.930;8.644;2023-12-20T08:42:28;17.87;;;3.93;;
7128;SDS011;3606;52.930;8.644;2023-12-20T08:44:56;16.17;;;3.87;;
7128;SDS011;3606;52.930;8.644;2023-12-20T08:47:23;14.57;;;4.10;;
7128;SDS011;3606;52.930;8.644;2023-12-20T08:49:49;16.80;;;4.20;;
7128;SDS011;3606;52.930;8.644;2023-12-20T08:52:14;14.57;;;4.50;;
7128;SDS011;3606;52.930;8.644;2023-12-20T08:54:40;13.67;;;4.00;;
7128;SDS011;3606;52.930;8.644;2023-12-20T08:57:06;12.97;;;4.47;;
7128;SDS011;3606;52.930;8.644;2023-12-20T08:59:32;12.33;;;3.90;;
7128;SDS011;3606;52.930;8.644;2023-12-20T09:01:58;16.00;;;4.10;;
7128;SDS011;3606;52.930;8.644;2023-12-20T09:04:23;14.53;;;4.47;;
7128;SDS011;3606;52.930;8.644;2023-12-20T09:06:50;10.00;;;3.77;;
7128;SDS011;3606;52.930;8.644;2023-12-20T09:09:15;17.60;;;4.03;;
7128;SDS011;3606;52.930;8.644;2023-12-20T09:11:41;11.63;;;4.17;;
7128;SDS011;3606;52.930;8.644;2023-12-20T09:14:07;12.67;;;3.93;;
7128;SDS011;3606;52.930;8.644;2023-12-20T09:16:33;14.87;;;3.70;;
7128;SDS011;3606;52.930;8.644;2023-12-20T09:18:58;11.47;;;4.13;;
7128;SDS011;3606;52.930;8.644;2023-12-20T09:21:24;16.13;;;4.43;;
7128;SDS011;3606;52.930;8.644;2023-12-20T09:23:50;16.90;;;3.53;;
7128;SDS011;3606;52.930;8.644;2023-12-20T09:26:15;14.27;;;4.27;;
7128;SDS011;3606;52.930;8.644;2023-12-20T09:28:41;20.60;;;4.73;;
7128;SDS011;3606;52.930;8.644;2023-12-20T09:31:07;15.57;;;4.40;;
7128;SDS011;3606;52.930;8.644;2023-12-20T09:33:33;11.13;;;4.00;;
7128;SDS011;3606;52.930;8.644;2023-12-20T09:35:59;14.77;;;3.87;;
7128;SDS011;3606;52.930;8.644;2023-12-20T09:38:24;11.33;;;3.83;;
7128;SDS011;3606;52.930;8.644;2023-12-20T09:40:50;12.47;;;4.00;;
7128;SDS011;3606;52.930;8.644;2023-12-20T09:43:17;19.83;;;4.73;;
7128;SDS011;3606;52.930;8.644;2023-12-20T09:45:47;11.50;;;4.33;;
7128;SDS011;3606;52.930;8.644;2023-12-20T09:48:13;14.17;;;4.10;;
7128;SDS011;3606;52.930;8.644;2023-12-20T09:50:42;14.80;;;4.63;;
7128;SDS011;3606;52.930;8.644;2023-12-20T09:53:09;12.87;;;4.63;;
7128;SDS011;3606;52.930;8.644;2023-12-20T09:55:39;15.93;;;4.53;;
7128;SDS011;3606;52.930;8.644;2023-12-20T09:58:07;14.67;;;4.83;;
7128;SDS011;3606;52.930;8.644;2023-12-20T10:00:34;11.00;;;4.20;;
7128;SDS011;3606;52.930;8.644;2023-12-20T10:03:00;10.80;;;5.07;;
7128;SDS011;3606;52.930;8.644;2023-12-20T10:07:53;8.43;;;3.77;;
7128;SDS011;3606;52.930;8.644;2023-12-20T10:10:19;6.07;;;2.47;;
7128;SDS011;3606;52.930;8.644;2023-12-20T10:13:04;4.43;;;1.60;;
7128;SDS011;3606;52.930;8.644;2023-12-20T10:15:32;0.90;;;0.60;;
7128;SDS011;3606;52.930;8.644;2023-12-20T10:17:58;3.83;;;1.33;;
7128;SDS011;3606;52.930;8.644;2023-12-20T10:20:24;4.40;;;1.20;;
7128;SDS011;3606;52.930;8.644;2023-12-20T10:22:50;5.60;;;1.33;;
7128;SDS011;3606;52.930;8.644;2023-12-20T10:25:18;2.77;;;1.30;;
7128;SDS011;3606;52.930;8.644;2023-12-20T10:27:44;2.10;;;1.20;;
7128;SDS011;3606;52.930;8.644;2023-12-20T10:30:10;4.53;;;1.40;;
7128;SDS011;3606;52.930;8.644;2023-12-20T10:32:36;4.13;;;1.50;;
7128;SDS011;3606;52.930;8.644;2023-12-20T10:35:02;4.87;;;1.60;;
7128;SDS011;3606;52.930;8.644;2023-12-20T10:37:27;7.13;;;1.60;;
7128;SDS011;3606;52.930;8.644;2023-12-20T10:39:53;4.27;;;1.17;;
7128;SDS011;3606;52.930;8.644;2023-12-20T10:42:23;1.97;;;1.20;;
7128;SDS011;3606;52.930;8.644;2023-12-20T10:44:51;3.53;;;1.87;;
7128;SDS011;3606;52.930;8.644;2023-12-20T10:47:18;2.43;;;1.50;;
7128;SDS011;3606;52.930;8.644;2023-12-20T10:49:45;5.53;;;1.70;;
7128;SDS011;3606;52.930;8.644;2023-12-20T10:52:12;7.30;;;2.17;;
7128;SDS011;3606;52.930;8.644;2023-12-20T10:54:38;11.10;;;2.10;;
7128;SDS011;3606;52.930;8.644;2023-12-20T10:57:05;5.33;;;1.47;;
7128;SDS011;3606;52.930;8.644;2023-12-20T10:59:36;3.97;;;1.37;;
7128;SDS011;3606;52.930;8.644;2023-12-20T11:02:02;2.70;;;1.17;;
7128;SDS011;3606;52.930;8.644;2023-12-20T11:07:52;3.53;;;1.73;;
7128;SDS011;3606;52.930;8.644;2023-12-20T11:10:03;3.87;;;1.53;;
7128;SDS011;3606;52.930;8.644;2023-12-20T11:12:45;4.10;;;1.70;;
7128;SDS011;3606;52.930;8.644;2023-12-20T11:15:16;2.67;;;1.20;;
7128;SDS011;3606;52.930;8.644;2023-12-20T11:17:44;4.83;;;1.83;;
7128;SDS011;3606;52.930;8.644;2023-12-20T11:20:11;8.63;;;1.70;;
7128;SDS011;3606;52.930;8.644;2023-12-20T11:22:37;11.83;;;1.63;;
7128;SDS011;3606;52.930;8.644;2023-12-20T11:25:09;4.10;;;1.57;;
7128;SDS011;3606;52.930;8.644;2023-12-20T11:27:42;7.33;;;1.60;;
7128;SDS011;3606;52.930;8.644;2023-12-20T11:30:08;6.07;;;1.73;;
7128;SDS011;3606;52.930;8.644;2023-12-20T11:32:35;4.50;;;1.30;;
7128;SDS011;3606;52.930;8.644;2023-12-20T11:37:37;7.77;;;1.90;;
7128;SDS011;3606;52.930;8.644;2023-12-20T11:40:08;3.97;;;1.20;;
7128;SDS011;3606;52.930;8.644;2023-12-20T11:42:40;3.67;;;1.70;;
7128;SDS011;3606;52.930;8.644;2023-12-20T11:45:10;5.00;;;1.70;;
7128;SDS011;3606;52.930;8.644;2023-12-20T11:47:35;7.13;;;1.60;;
7128;SDS011;3606;52.930;8.644;2023-12-20T11:50:01;3.10;;;1.57;;
7128;SDS011;3606;52.930;8.644;2023-12-20T11:52:29;6.27;;;2.10;;
7128;SDS011;3606;52.930;8.644;2023-12-20T11:54:55;8.90;;;1.90;;
7128;SDS011;3606;52.930;8.644;2023-12-20T11:57:20;7.27;;;2.00;;
7128;SDS011;3606;52.930;8.644;2023-12-20T11:59:46;6.60;;;2.23;;
7128;SDS011;3606;52.930;8.644;2023-12-20T12:02:12;6.87;;;2.27;;
7128;SDS011;3606;52.930;8.644;2023-12-20T12:04:37;6.50;;;1.73;;
7128;SDS011;3606;52.930;8.644;2023-12-20T12:07:03;8.23;;;2.53;;
7128;SDS011;3606;52.930;8.644;2023-12-20T12:09:29;10.07;;;2.20;;
7128;SDS011;3606;52.930;8.644;2023-12-20T12:11:54;5.27;;;2.33;;
7128;SDS011;3606;52.930;8.644;2023-12-20T12:14:20;7.50;;;2.33;;
7128;SDS011;3606;52.930;8.644;2023-12-20T12:16:46;9.93;;;2.30;;
7128;SDS011;3606;52.930;8.644;2023-12-20T12:19:22;8.43;;;2.40;;
7128;SDS011;3606;52.930;8.644;2023-12-20T12:21:48;10.33;;;2.43;;
7128;SDS011;3606;52.930;8.644;2023-12-20T12:24:29;6.37;;;2.13;;
7128;SDS011;3606;52.930;8.644;2023-12-20T12:26:57;12.70;;;2.47;;
7128;SDS011;3606;52.930;8.644;2023-12-20T12:29:23;7.27;;;2.30;;
7128;SDS011;3606;52.930;8.644;2023-12-20T12:31:49;9.77;;;2.47;;
7128;SDS011;3606;52.930;8.644;2023-12-20T12:34:15;7.13;;;2.60;;
7128;SDS011;3606;52.930;8.644;2023-12-20T12:36:42;10.30;;;2.67;;
7128;SDS011;3606;52.930;8.644;2023-12-20T12:39:08;6.53;;;2.03;;
7128;SDS011;3606;52.930;8.644;2023-12-20T12:41:37;9.40;;;2.20;;
7128;SDS011;3606;52.930;8.644;2023-12-20T12:44:02;11.07;;;3.07;;
7128;SDS011;3606;52.930;8.644;2023-12-20T12:46:28;8.90;;;2.33;;
7128;SDS011;3606;52.930;8.644;2023-12-20T12:48:54;6.67;;;2.20;;
7128;SDS011;3606;52.930;8.644;2023-12-20T12:51:19;8.40;;;2.10;;
7128;SDS011;3606;52.930;8.644;2023-12-20T12:53:45;7.20;;;2.00;;
7128;SDS011;3606;52.930;8.644;2023-12-20T12:56:11;7.37;;;2.60;;
7128;SDS011;3606;52.930;8.644;2023-12-20T12:58:38;12.67;;;2.13;;
7128;SDS011;3606;52.930;8.644;2023-12-20T13:01:04;9.33;;;2.10;;
7128;SDS011;3606;52.930;8.644;2023-12-20T13:03:29;3.37;;;1.93;;
7128;SDS011;3606;52.930;8.644;2023-12-20T13:05:55;7.77;;;2.20;;
7128;SDS011;3606;52.930;8.644;2023-12-20T13:08:21;7.13;;;2.40;;
7128;SDS011;3606;52.930;8.644;2023-12-20T13:10:47;9.50;;;2.57;;
7128;SDS011;3606;52.930;8.644;2023-12-20T13:13:13;8.90;;;2.00;;
7128;SDS011;3606;52.930;8.644;2023-12-20T13:15:38;10.03;;;2.43;;
7128;SDS011;3606;52.930;8.644;2023-12-20T13:18:04;10.10;;;2.40;;
7128;SDS011;3606;52.930;8.644;2023-12-20T13:20:31;8.70;;;2.50;;
7128;SDS011;3606;52.930;8.644;2023-12-20T13:22:56;9.07;;;2.20;;
7128;SDS011;3606;52.930;8.644;2023-12-20T13:25:22;9.90;;;1.93;;
7128;SDS011;3606;52.930;8.644;2023-12-20T13:27:48;6.97;;;1.90;;
7128;SDS011;3606;52.930;8.644;2023-12-20T13:30:15;9.13;;;2.10;;
7128;SDS011;3606;52.930;8.644;2023-12-20T13:32:42;6.30;;;2.20;;
7128;SDS011;3606;52.930;8.644;2023-12-20T13:35:07;3.47;;;2.13;;
7128;SDS011;3606;52.930;8.644;2023-12-20T13:37:33;10.77;;;2.53;;
7128;SDS011;3606;52.930;8.644;2023-12-20T13:39:59;6.20;;;2.23;;
7128;SDS011;3606;52.930;8.644;2023-12-20T13:42:26;12.57;;;2.60;;
7128;SDS011;3606;52.930;8.644;2023-12-20T13:44:52;8.17;;;2.70;;
7128;SDS011;3606;52.930;8.644;2023-12-20T13:47:18;8.40;;;2.40;;
7128;SDS011;3606;52.930;8.644;2023-12-20T13:49:44;11.43;;;2.80;;
7128;SDS011;3606;52.930;8.644;2023-12-20T13:52:10;6.33;;;2.27;;
7128;SDS011;3606;52.930;8.644;2023-12-20T13:54:36;8.73;;;2.80;;
7128;SDS011;3606;52.930;8.644;2023-12-20T13:57:02;10.43;;;2.67;;
7128;SDS011;3606;52.930;8.644;2023-12-20T13:59:28;10.50;;;2.43;;
7128;SDS011;3606;52.930;8.644;2023-12-20T14:01:54;14.33;;;4.63;;
7128;SDS011;3606;52.930;8.644;2023-12-20T14:04:20;10.83;;;6.27;;
7128;SDS011;3606;52.930;8.644;2023-12-20T14:06:47;19.67;;;11.70;;
7128;SDS011;3606;52.930;8.644;2023-12-20T14:09:12;11.33;;;3.40;;
7128;SDS011;3606;52.930;8.644;2023-12-20T14:11:38;10.07;;;2.70;;
7128;SDS011;3606;52.930;8.644;2023-12-20T14:14:06;10.30;;;2.60;;
7128;SDS011;3606;52.930;8.644;2023-12-20T14:16:33;11.23;;;2.87;;
7128;SDS011;3606;52.930;8.644;2023-12-20T14:18:59;7.10;;;2.70;;
7128;SDS011;3606;52.930;8.644;2023-12-20T14:21:24;10.07;;;2.70;;
7128;SDS011;3606;52.930;8.644;2023-12-20T14:23:50;9.47;;;2.53;;
7128;SDS011;3606;52.930;8.644;2023-12-20T14:26:17;13.63;;;2.73;;
7128;SDS011;3606;52.930;8.644;2023-12-20T14:28:43;8.83;;;3.27;;
7128;SDS011;3606;52.930;8.644;2023-12-20T14:31:09;9.40;;;2.90;;
7128;SDS011;3606;52.930;8.644;2023-12-20T14:33:35;12.63;;;3.37;;
7128;SDS011;3606;52.930;8.644;2023-12-20T14:36:03;8.63;;;2.53;;
7128;SDS011;3606;52.930;8.644;2023-12-20T14:38:32;14.30;;;3.80;;
7128;SDS011;3606;52.930;8.644;2023-12-20T14:40:59;8.80;;;2.83;;
7128;SDS011;3606;52.930;8.644;2023-12-20T14:43:25;14.30;;;4.80;;
7128;SDS011;3606;52.930;8.644;2023-12-20T14:45:51;10.40;;;3.80;;
7128;SDS011;3606;52.930;8.644;2023-12-20T14:48:17;9.27;;;3.03;;
7128;SDS011;3606;52.930;8.644;2023-12-20T14:50:43;7.90;;;2.30;;
7128;SDS011;3606;52.930;8.644;2023-12-20T14:53:09;10.97;;;2.40;;
7128;SDS011;3606;52.930;8.644;2023-12-20T14:55:35;19.40;;;2.90;;
7128;SDS011;3606;52.930;8.644;2023-12-20T14:58:01;6.37;;;2.63;;
7128;SDS011;3606;52.930;8.644;2023-12-20T15:00:27;12.00;;;2.40;;
7128;SDS011;3606;52.930;8.644;2023-12-20T15:02:53;9.10;;;2.27;;
7128;SDS011;3606;52.930;8.644;2023-12-20T15:05:21;8.17;;;3.30;;
7128;SDS011;3606;52.930;8.644;2023-12-20T15:07:47;34.60;;;13.37;;